Time;durP1;ratioP1;P1;durP2;ratioP2;P2;SDS_P1;SDS_P2;PMS_P1;PMS_P2;Temp;Humidity;BMP_temperature;BMP_pressure;BME280_temperature;BME280_humidity;BME280_pressure;Samples;Min_cycle;Max_cycle;Signal;HPM_P1;HPM_P2
2023/01/08 00:01:23;;;;;;;5.35;2.85;;;9.90;99.90;;;;;;4939505;29;20389;-78
2023/01/08 00:03:49;;;;;;;5.57;2.78;;;9.90;99.90;;;;;;4939073;28;20084;-78
2023/01/08 00:06:17;;;;;;;6.00;3.20;;;9.90;99.90;;;;;;4923418;29;20039;-77
2023/01/08 00:08:43;;;;;;;5.45;3.10;;;10.00;99.90;;;;;;4938485;29;20063;-74
2023/01/08 00:11:09;;;;;;;6.53;3.30;;;10.00;99.90;;;;;;4938806;29;20043;-74
2023/01/08 00:13:35;;;;;;;5.72;3.15;;;10.00;99.90;;;;;;4939344;29;20061;-78
2023/01/08 00:16:06;;;;;;;6.95;3.15;;;10.00;99.90;;;;;;4923639;28;20043;-76
2023/01/08 00:18:32;;;;;;;5.55;3.10;;;10.00;99.90;;;;;;4936047;29;20461;-78
2023/01/08 00:20:58;;;;;;;7.25;3.03;;;10.00;99.90;;;;;;4952086;28;20126;-76
2023/01/08 00:23:23;;;;;;;7.07;3.33;;;10.00;99.90;;;;;;4938438;29;20058;-74
2023/01/08 00:25:49;;;;;;;6.18;3.10;;;10.00;99.90;;;;;;4939489;29;20069;-78
2023/01/08 00:28:15;;;;;;;5.80;3.30;;;10.00;99.90;;;;;;4923055;29;20055;-75
2023/01/08 00:30:42;;;;;;;6.00;3.15;;;10.00;99.90;;;;;;4923601;29;20059;-77
2023/01/08 00:33:09;;;;;;;6.50;3.55;;;10.00;99.90;;;;;;4938520;29;20130;-78
2023/01/08 00:35:36;;;;;;;5.65;3.30;;;10.00;99.90;;;;;;4922931;29;20055;-74
2023/01/08 00:38:02;;;;;;;6.28;3.25;;;9.90;99.90;;;;;;4922127;28;20121;-76
2023/01/08 00:40:28;;;;;;;6.57;3.40;;;10.00;99.90;;;;;;4956035;28;20406;-78
2023/01/08 00:42:53;;;;;;;5.72;3.10;;;10.00;99.90;;;;;;4935673;28;20048;-76
2023/01/08 00:45:19;;;;;;;6.20;3.40;;;10.00;99.90;;;;;;4923264;29;20392;-77
2023/01/08 00:47:45;;;;;;;6.10;3.30;;;10.00;99.90;;;;;;4937952;29;20058;-76
2023/01/08 00:50:11;;;;;;;7.30;3.50;;;10.00;99.90;;;;;;4955804;28;20055;-78
2023/01/08 00:52:37;;;;;;;5.82;3.05;;;9.90;99.90;;;;;;4937718;29;20042;-78
2023/01/08 00:55:03;;;;;;;5.30;3.30;;;9.90;99.90;;;;;;4923352;29;20051;-77
2023/01/08 00:57:36;;;;;;;6.80;3.50;;;9.90;99.90;;;;;;4937915;29;20051;-77
2023/01/08 01:00:05;;;;;;;5.70;3.30;;;9.90;99.90;;;;;;4947251;28;20141;-77
2023/01/08 01:02:30;;;;;;;5.68;3.25;;;9.90;99.90;;;;;;4940063;29;20376;-76
2023/01/08 01:04:56;;;;;;;5.93;3.20;;;9.90;99.90;;;;;;4923008;29;20062;-75
2023/01/08 01:07:22;;;;;;;6.00;3.28;;;9.90;99.90;;;;;;4937137;28;20051;-75
2023/01/08 01:09:47;;;;;;;6.03;3.17;;;9.90;99.90;;;;;;4955343;28;20047;-77
2023/01/08 01:12:13;;;;;;;5.75;3.03;;;10.00;99.90;;;;;;4938084;29;20134;-77
2023/01/08 01:14:39;;;;;;;6.30;3.42;;;9.90;99.90;;;;;;4938414;29;20039;-77
2023/01/08 01:17:05;;;;;;;5.95;3.40;;;9.90;99.90;;;;;;4955297;28;20054;-76
2023/01/08 01:19:31;;;;;;;6.82;3.70;;;9.90;99.90;;;;;;4921608;28;20058;-77
2023/01/08 01:21:56;;;;;;;7.32;3.90;;;9.90;99.90;;;;;;4937858;29;20134;-77
2023/01/08 01:24:23;;;;;;;8.73;3.92;;;9.90;99.90;;;;;;4954263;28;20083;-77
2023/01/08 01:26:52;;;;;;;6.68;4.00;;;9.80;99.90;;;;;;4938497;29;20110;-77
2023/01/08 01:29:18;;;;;;;7.15;4.20;;;9.80;99.90;;;;;;4921800;28;20051;-76
2023/01/08 01:31:44;;;;;;;7.55;4.05;;;9.70;99.90;;;;;;4937778;29;20055;-77
2023/01/08 01:34:09;;;;;;;5.47;2.85;;;9.70;99.90;;;;;;4955028;28;20051;-75
2023/01/08 01:36:36;;;;;;;6.85;2.50;;;9.70;99.90;;;;;;4943374;28;20051;-78
2023/01/08 01:39:02;;;;;;;6.60;1.77;;;9.60;99.90;;;;;;4952469;28;20456;-80
2023/01/08 01:41:42;;;;;;;5.38;1.88;;;9.40;99.90;;;;;;4934488;28;20050;-78
2023/01/08 01:44:37;;;;;;;7.65;1.73;;;9.30;99.90;;;;;;4945871;29;20122;-79
2023/01/08 01:47:13;;;;;;;8.02;1.85;;;9.20;99.90;;;;;;4947332;28;20122;-79
2023/01/08 01:49:45;;;;;;;7.82;1.83;;;9.00;99.90;;;;;;4938253;29;20055;-79
2023/01/08 01:52:11;;;;;;;6.55;1.48;;;9.00;99.90;;;;;;4936939;28;20055;-77
2023/01/08 01:54:37;;;;;;;8.52;1.60;;;8.90;99.90;;;;;;4940673;29;20051;-80
2023/01/08 01:57:03;;;;;;;8.60;1.65;;;8.90;99.90;;;;;;4945074;29;20095;-77
2023/01/08 01:59:29;;;;;;;9.55;2.00;;;8.80;99.90;;;;;;4937622;29;20484;-79
2023/01/08 02:01:56;;;;;;;8.32;1.58;;;8.70;99.90;;;;;;4937435;29;20276;-80
2023/01/08 02:04:22;;;;;;;7.60;1.90;;;8.70;99.90;;;;;;4941432;28;20059;-80
2023/01/08 02:07:10;;;;;;;8.30;1.70;;;8.70;99.90;;;;;;4958525;28;20126;-79
2023/01/08 02:09:49;;;;;;;6.47;1.60;;;8.70;99.90;;;;;;4925734;29;20055;-80
2023/01/08 02:12:42;;;;;;;11.48;1.70;;;8.60;99.90;;;;;;4948559;29;20134;-80
2023/01/08 02:15:33;;;;;;;8.32;1.77;;;8.60;99.90;;;;;;4928706;29;20147;-80
2023/01/08 02:18:02;;;;;;;8.57;1.60;;;8.60;99.90;;;;;;4940675;28;20403;-80
2023/01/08 02:20:41;;;;;;;6.63;1.70;;;8.60;99.90;;;;;;4941664;29;20459;-80
2023/01/08 02:23:22;;;;;;;8.55;1.90;;;8.60;99.90;;;;;;4939062;28;20043;-80
2023/01/08 02:26:06;;;;;;;7.15;1.67;;;8.50;99.90;;;;;;4941703;29;20062;-79
2023/01/08 02:28:38;;;;;;;8.32;1.90;;;8.50;99.90;;;;;;4921750;28;20058;-80
2023/01/08 02:31:05;;;;;;;7.85;1.90;;;8.50;99.90;;;;;;4925579;28;20047;-79
2023/01/08 02:33:32;;;;;;;9.15;1.75;;;8.50;99.90;;;;;;4941107;28;20516;-80
2023/01/08 02:36:21;;;;;;;9.20;1.75;;;8.50;99.90;;;;;;4941435;29;20055;-79
2023/01/08 02:39:16;;;;;;;6.60;1.60;;;8.50;99.90;;;;;;4939890;28;20046;-79
2023/01/08 02:42:04;;;;;;;9.20;1.98;;;8.40;99.90;;;;;;4905107;29;20062;-79
2023/01/08 02:44:33;;;;;;;7.43;1.77;;;8.40;99.90;;;;;;4940201;28;20143;-80
2023/01/08 02:47:01;;;;;;;8.85;1.90;;;8.40;99.90;;;;;;4938600;28;20103;-78
2023/01/08 02:49:31;;;;;;;8.35;1.73;;;8.30;99.90;;;;;;4952355;29;20054;-79
2023/01/08 02:52:01;;;;;;;8.98;1.67;;;8.40;99.90;;;;;;4939999;28;20051;-79
2023/01/08 02:54:31;;;;;;;8.25;1.80;;;8.30;99.90;;;;;;4940607;29;20126;-79
2023/01/08 02:57:12;;;;;;;7.28;1.65;;;8.30;99.90;;;;;;4940470;29;20182;-78
2023/01/08 02:59:40;;;;;;;7.28;1.73;;;8.30;99.90;;;;;;4950705;28;20099;-79
2023/01/08 03:02:06;;;;;;;8.15;1.80;;;8.30;99.90;;;;;;4924482;29;20066;-79
2023/01/08 03:04:38;;;;;;;8.95;1.92;;;8.30;99.90;;;;;;4940158;29;20510;-79
2023/01/08 03:07:04;;;;;;;8.27;2.10;;;8.30;99.90;;;;;;4939541;28;20123;-79
2023/01/08 03:09:31;;;;;;;5.97;2.10;;;8.30;99.90;;;;;;4940366;29;20047;-79
2023/01/08 03:12:24;;;;;;;8.75;2.00;;;8.30;99.90;;;;;;4939645;28;20526;-77
2023/01/08 03:14:51;;;;;;;7.40;2.28;;;8.40;99.90;;;;;;4937842;29;20059;-79
2023/01/08 03:17:29;;;;;;;7.45;2.45;;;8.40;99.90;;;;;;4957218;28;20118;-78
2023/01/08 03:20:08;;;;;;;7.03;2.58;;;8.40;99.90;;;;;;4940194;29;20039;-78
2023/01/08 03:22:38;;;;;;;5.93;2.50;;;8.50;99.90;;;;;;4923398;28;20057;-78
2023/01/08 03:25:05;;;;;;;7.22;3.00;;;8.40;99.90;;;;;;4940243;29;20387;-78
2023/01/08 03:27:34;;;;;;;6.80;3.20;;;8.50;99.90;;;;;;4940046;28;20054;-79
2023/01/08 03:30:02;;;;;;;9.10;4.10;;;8.50;99.90;;;;;;4939956;29;20043;-79
2023/01/08 03:32:29;;;;;;;7.95;4.20;;;8.50;99.90;;;;;;4956774;28;20251;-79
2023/01/08 03:34:57;;;;;;;9.32;4.72;;;8.50;99.90;;;;;;4924531;28;20047;-78
2023/01/08 03:37:32;;;;;;;9.63;4.65;;;8.60;99.90;;;;;;4938896;28;20047;-79
2023/01/08 03:40:06;;;;;;;9.43;5.10;;;8.60;99.90;;;;;;4939757;28;20051;-78
2023/01/08 03:42:31;;;;;;;9.25;4.95;;;8.70;99.90;;;;;;4939791;28;20057;-78
2023/01/08 03:44:58;;;;;;;10.70;4.93;;;8.70;99.90;;;;;;4937643;28;20047;-78
2023/01/08 03:47:27;;;;;;;8.88;4.38;;;8.80;99.90;;;;;;4938967;29;20059;-78
2023/01/08 03:49:55;;;;;;;9.45;4.95;;;8.90;99.90;;;;;;4936656;29;20460;-78
2023/01/08 03:52:27;;;;;;;10.77;4.80;;;8.80;99.90;;;;;;4933322;29;20522;-76
2023/01/08 03:54:52;;;;;;;9.77;5.10;;;8.90;99.90;;;;;;4930514;29;20492;-78
2023/01/08 03:57:18;;;;;;;9.27;5.50;;;9.00;99.90;;;;;;4939002;28;20051;-79
2023/01/08 03:59:44;;;;;;;9.93;4.65;;;9.00;99.90;;;;;;4924142;29;20058;-80
2023/01/08 04:02:10;;;;;;;8.75;4.32;;;9.00;99.90;;;;;;4939512;29;20055;-80
2023/01/08 04:04:36;;;;;;;7.88;4.40;;;9.00;99.90;;;;;;4923799;29;20404;-79
2023/01/08 04:07:02;;;;;;;8.63;3.97;;;9.00;99.90;;;;;;4956357;28;20050;-79
2023/01/08 04:09:28;;;;;;;8.70;3.80;;;9.00;99.90;;;;;;4939011;28;20043;-78
2023/01/08 04:11:54;;;;;;;8.68;4.45;;;9.00;99.90;;;;;;4939432;29;20043;-78
2023/01/08 04:14:19;;;;;;;9.13;4.88;;;9.00;99.90;;;;;;4938676;28;20134;-80
2023/01/08 04:16:45;;;;;;;9.85;5.47;;;9.00;99.90;;;;;;4939198;29;20403;-79
2023/01/08 04:19:11;;;;;;;9.95;5.38;;;9.00;99.90;;;;;;4956083;28;20106;-79
2023/01/08 04:21:37;;;;;;;12.43;6.10;;;9.00;99.90;;;;;;4923078;29;20413;-79
2023/01/08 04:24:04;;;;;;;11.48;6.32;;;9.00;99.90;;;;;;4938342;29;20051;-78
2023/01/08 04:26:30;;;;;;;9.48;5.32;;;9.00;99.90;;;;;;4938620;29;20506;-79
2023/01/08 04:28:56;;;;;;;10.00;4.57;;;9.00;99.90;;;;;;4935944;29;20079;-78
2023/01/08 04:31:22;;;;;;;8.43;3.60;;;9.00;99.90;;;;;;4934637;29;20083;-79
2023/01/08 04:33:48;;;;;;;7.72;3.88;;;9.00;99.90;;;;;;4938795;29;20440;-77
2023/01/08 04:36:14;;;;;;;8.88;4.10;;;8.90;99.90;;;;;;4939103;29;20054;-76
2023/01/08 04:38:40;;;;;;;7.90;3.60;;;8.80;99.90;;;;;;4948631;28;20531;-76
2023/01/08 04:41:06;;;;;;;7.68;3.08;;;8.80;99.90;;;;;;4925480;29;20059;-74
2023/01/08 04:43:32;;;;;;;7.18;3.35;;;8.80;99.90;;;;;;4932914;29;20090;-75
2023/01/08 04:46:03;;;;;;;7.63;3.45;;;8.80;99.90;;;;;;4938290;28;20043;-75
2023/01/08 04:48:30;;;;;;;6.75;3.45;;;8.80;99.90;;;;;;4938464;28;20055;-74
2023/01/08 04:51:00;;;;;;;8.20;2.92;;;8.80;99.90;;;;;;4922602;28;20079;-74
2023/01/08 04:53:26;;;;;;;8.52;3.28;;;8.70;99.90;;;;;;4922039;29;20058;-75
2023/01/08 04:55:53;;;;;;;6.88;3.20;;;8.70;99.90;;;;;;4938812;29;20484;-75
2023/01/08 04:58:19;;;;;;;8.70;3.30;;;8.70;99.90;;;;;;4938129;29;20519;-75
2023/01/08 05:00:45;;;;;;;7.88;3.10;;;8.70;99.90;;;;;;4938560;29;20047;-75
2023/01/08 05:03:11;;;;;;;8.50;3.40;;;8.60;99.90;;;;;;4938284;28;20376;-76
2023/01/08 05:05:37;;;;;;;6.75;3.10;;;8.60;99.90;;;;;;4938781;29;20484;-74
2023/01/08 05:08:03;;;;;;;7.72;2.92;;;8.60;99.90;;;;;;4936860;28;20058;-75
2023/01/08 05:10:29;;;;;;;8.80;3.83;;;8.60;99.90;;;;;;4922935;29;20403;-74
2023/01/08 05:12:58;;;;;;;9.05;3.80;;;8.60;99.90;;;;;;4937503;28;20059;-75
2023/01/08 05:15:24;;;;;;;9.27;3.88;;;8.60;99.90;;;;;;4938262;29;20086;-75
2023/01/08 05:18:01;;;;;;;11.55;4.18;;;8.60;99.90;;;;;;4955230;28;20043;-76
2023/01/08 05:20:28;;;;;;;9.00;4.40;;;8.60;99.90;;;;;;4938351;29;20086;-75
2023/01/08 05:22:54;;;;;;;8.05;4.30;;;8.60;99.90;;;;;;4936958;28;20399;-74
2023/01/08 05:25:20;;;;;;;9.90;4.50;;;8.60;99.90;;;;;;4938460;29;20047;-74
2023/01/08 05:27:46;;;;;;;8.73;4.53;;;8.60;99.90;;;;;;4922558;29;20066;-75
2023/01/08 05:30:12;;;;;;;10.25;4.50;;;8.60;99.90;;;;;;4921980;28;20054;-74
2023/01/08 05:32:38;;;;;;;11.00;4.15;;;8.60;99.90;;;;;;4937558;29;20058;-75
2023/01/08 05:35:04;;;;;;;8.45;4.47;;;8.60;99.90;;;;;;4955335;28;20051;-76
2023/01/08 05:37:32;;;;;;;7.15;4.00;;;8.60;99.90;;;;;;4936253;28;20159;-75
2023/01/08 05:39:58;;;;;;;10.35;4.30;;;8.70;99.90;;;;;;4937970;29;20083;-76
2023/01/08 05:42:23;;;;;;;8.85;4.25;;;8.60;99.90;;;;;;4921698;29;20495;-75
2023/01/08 05:44:49;;;;;;;7.82;3.65;;;8.60;99.90;;;;;;4941910;28;20043;-75
2023/01/08 05:47:15;;;;;;;8.02;3.20;;;8.60;99.90;;;;;;4954171;28;20113;-74
2023/01/08 05:49:41;;;;;;;7.43;3.10;;;8.60;99.90;;;;;;4956940;28;20597;-78
2023/01/08 05:52:06;;;;;;;8.45;3.30;;;8.50;99.90;;;;;;4940633;28;20066;-74
2023/01/08 05:54:32;;;;;;;9.27;2.47;;;8.50;99.90;;;;;;4938104;29;20058;-76
2023/01/08 05:56:58;;;;;;;8.07;2.50;;;8.50;99.90;;;;;;4937772;29;20114;-76
2023/01/08 05:59:23;;;;;;;9.13;2.80;;;8.40;99.90;;;;;;4937167;29;20186;-75
2023/01/08 06:01:49;;;;;;;8.77;2.33;;;8.40;99.90;;;;;;4922249;29;20106;-75
2023/01/08 06:04:15;;;;;;;6.55;2.10;;;8.40;99.90;;;;;;4954265;28;20087;-77
2023/01/08 06:06:40;;;;;;;9.50;2.40;;;8.40;99.90;;;;;;4954824;28;20065;-78
2023/01/08 06:09:06;;;;;;;10.70;2.13;;;8.30;99.90;;;;;;4936597;28;20122;-77
2023/01/08 06:11:32;;;;;;;7.22;2.08;;;8.30;99.90;;;;;;4921634;28;20062;-76
2023/01/08 06:13:57;;;;;;;8.10;1.80;;;8.20;99.90;;;;;;4937390;29;20115;-78
2023/01/08 06:16:23;;;;;;;8.35;2.00;;;8.20;99.90;;;;;;4937373;28;20110;-78
2023/01/08 06:18:49;;;;;;;6.80;1.90;;;8.20;99.90;;;;;;4937552;29;20050;-77
2023/01/08 06:21:15;;;;;;;10.07;1.98;;;8.20;99.90;;;;;;4937336;29;20495;-78
2023/01/08 06:23:40;;;;;;;10.25;1.90;;;8.20;99.90;;;;;;4953998;28;20090;-77
2023/01/08 06:26:06;;;;;;;9.57;2.10;;;8.20;99.90;;;;;;4954295;28;20484;-78
2023/01/08 06:28:32;;;;;;;7.25;1.75;;;8.20;99.90;;;;;;4921599;28;20412;-77
2023/01/08 06:30:59;;;;;;;7.85;1.95;;;8.20;99.90;;;;;;4937695;29;20396;-76
2023/01/08 06:33:26;;;;;;;9.52;1.92;;;8.10;99.90;;;;;;4937097;29;20047;-79
2023/01/08 06:35:51;;;;;;;7.88;1.88;;;8.10;99.90;;;;;;4937510;28;20055;-78
2023/01/08 06:38:18;;;;;;;7.53;2.03;;;8.10;99.90;;;;;;4936637;29;20576;-78
2023/01/08 06:40:44;;;;;;;8.05;1.88;;;8.10;99.90;;;;;;4937314;28;20059;-77
2023/01/08 06:43:10;;;;;;;7.30;1.60;;;8.10;99.90;;;;;;4950071;28;20047;-79
2023/01/08 06:45:36;;;;;;;7.47;1.77;;;8.10;99.90;;;;;;4918738;29;20051;-77
2023/01/08 06:48:03;;;;;;;9.50;1.90;;;8.20;99.90;;;;;;4927655;28;20063;-77
2023/01/08 06:50:29;;;;;;;9.02;1.85;;;8.10;99.90;;;;;;4924878;28;20191;-77
2023/01/08 06:52:55;;;;;;;5.00;1.70;;;8.20;99.90;;;;;;4939995;29;20086;-78
2023/01/08 06:55:23;;;;;;;7.75;1.80;;;8.10;99.90;;;;;;4940694;28;20051;-76
2023/01/08 06:57:53;;;;;;;6.20;1.75;;;8.10;99.90;;;;;;4940463;29;20122;-78
2023/01/08 07:00:21;;;;;;;7.72;1.85;;;8.10;99.90;;;;;;4940687;29;20043;-77
2023/01/08 07:02:46;;;;;;;7.55;1.90;;;8.10;99.90;;;;;;4940551;29;20047;-77
2023/01/08 07:05:12;;;;;;;7.15;1.90;;;8.10;99.90;;;;;;4940865;29;20061;-76
2023/01/08 07:07:38;;;;;;;8.88;2.00;;;8.10;99.90;;;;;;4939084;29;20047;-77
2023/01/08 07:10:04;;;;;;;8.77;1.92;;;8.10;99.90;;;;;;4925054;29;20051;-77
2023/01/08 07:12:29;;;;;;;6.05;1.60;;;8.00;99.90;;;;;;4924569;28;20047;-77
2023/01/08 07:14:55;;;;;;;10.00;2.17;;;8.10;99.90;;;;;;4940948;29;20049;-77
2023/01/08 07:17:21;;;;;;;10.40;1.92;;;8.10;99.90;;;;;;4940053;29;20054;-77
2023/01/08 07:19:47;;;;;;;9.98;2.10;;;8.00;99.90;;;;;;4908712;29;20543;-77
2023/01/08 07:22:12;;;;;;;10.45;2.08;;;8.10;99.90;;;;;;4936145;29;20051;-78
2023/01/08 07:24:38;;;;;;;10.70;2.38;;;8.10;99.90;;;;;;4938113;28;20051;-77
2023/01/08 07:27:04;;;;;;;11.65;2.30;;;8.10;99.90;;;;;;4957007;28;20047;-78
2023/01/08 07:29:29;;;;;;;11.27;2.25;;;8.10;99.90;;;;;;4939731;28;20048;-78
2023/01/08 07:31:55;;;;;;;9.00;2.17;;;8.00;99.90;;;;;;4932700;29;20066;-77
2023/01/08 07:34:21;;;;;;;9.13;2.22;;;8.10;99.90;;;;;;4940116;29;20171;-77
2023/01/08 07:36:46;;;;;;;8.77;2.22;;;8.10;99.90;;;;;;4924570;29;20051;-77
2023/01/08 07:39:12;;;;;;;8.48;2.28;;;8.00;99.90;;;;;;4951970;28;20131;-77
2023/01/08 07:41:38;;;;;;;8.88;2.45;;;8.00;99.90;;;;;;4924546;29;20062;-76
2023/01/08 07:44:04;;;;;;;8.48;2.10;;;8.00;99.90;;;;;;4920915;29;20062;-77
2023/01/08 07:46:29;;;;;;;8.88;2.10;;;8.00;99.90;;;;;;4939530;29;20063;-77
2023/01/08 07:48:56;;;;;;;11.10;2.08;;;8.00;99.90;;;;;;4939234;29;20043;-78
2023/01/08 07:51:22;;;;;;;9.98;2.22;;;8.00;99.90;;;;;;4939828;29;20059;-78
2023/01/08 07:53:50;;;;;;;10.23;2.40;;;8.00;99.90;;;;;;4938453;28;20055;-76
2023/01/08 07:56:16;;;;;;;9.57;2.33;;;8.00;99.90;;;;;;4940116;29;20456;-77
2023/01/08 07:58:41;;;;;;;9.88;2.20;;;8.00;99.90;;;;;;4939579;28;20083;-76
2023/01/08 08:01:09;;;;;;;8.43;2.20;;;8.00;99.90;;;;;;4938886;29;20070;-77
2023/01/08 08:03:36;;;;;;;9.82;2.50;;;8.00;99.90;;;;;;4939453;29;20122;-77
2023/01/08 08:06:02;;;;;;;7.65;1.98;;;8.00;99.90;;;;;;4939607;29;20051;-77
2023/01/08 08:08:28;;;;;;;8.15;2.25;;;8.00;99.90;;;;;;4938305;28;20441;-76
2023/01/08 08:10:53;;;;;;;9.90;2.17;;;7.90;99.90;;;;;;4937441;28;20054;-77
2023/01/08 08:13:19;;;;;;;7.43;2.03;;;7.80;99.90;;;;;;4939295;29;20047;-77
2023/01/08 08:15:45;;;;;;;7.60;2.08;;;7.80;99.90;;;;;;4939258;28;20048;-78
2023/01/08 08:18:11;;;;;;;7.95;2.15;;;7.80;99.90;;;;;;4939328;29;20105;-77
2023/01/08 08:20:37;;;;;;;8.38;2.17;;;7.80;99.90;;;;;;4922082;29;20601;-77
2023/01/08 08:23:12;;;;;;;8.60;2.25;;;7.80;99.90;;;;;;4935786;28;20050;-76
2023/01/08 08:25:39;;;;;;;8.32;2.20;;;7.70;99.90;;;;;;4935922;28;20476;-75
2023/01/08 08:28:06;;;;;;;9.27;2.08;;;7.90;99.90;;;;;;4933225;28;20126;-77
2023/01/08 08:30:34;;;;;;;6.68;2.00;;;7.60;99.90;;;;;;4935434;28;20040;-77
2023/01/08 08:33:02;;;;;;;7.72;2.10;;;7.60;99.90;;;;;;4932737;28;20051;-76
2023/01/08 08:35:28;;;;;;;7.65;2.05;;;7.50;99.90;;;;;;4932648;29;20055;-76
2023/01/08 08:37:55;;;;;;;6.70;1.85;;;7.70;99.90;;;;;;4921949;29;20046;-76
2023/01/08 08:40:20;;;;;;;5.53;1.80;;;7.80;99.90;;;;;;4938267;28;20058;-77
2023/01/08 08:42:46;;;;;;;6.55;2.00;;;7.80;99.90;;;;;;4938523;28;20047;-76
2023/01/08 08:45:12;;;;;;;8.65;2.13;;;7.90;99.90;;;;;;4908471;28;20113;-77
2023/01/08 08:47:38;;;;;;;9.63;2.20;;;7.90;99.90;;;;;;4921381;28;20389;-78
2023/01/08 08:50:05;;;;;;;6.82;2.10;;;7.90;99.90;;;;;;4938341;29;20046;-77
2023/01/08 08:52:32;;;;;;;7.07;2.05;;;8.00;99.90;;;;;;4954803;28;20054;-77
2023/01/08 08:54:59;;;;;;;7.38;1.90;;;8.10;99.90;;;;;;4937963;28;20051;-77
2023/01/08 08:57:26;;;;;;;8.57;1.92;;;8.10;99.90;;;;;;4934580;28;20055;-76
2023/01/08 08:59:52;;;;;;;5.75;1.70;;;8.20;99.90;;;;;;4932386;28;20122;-77
2023/01/08 09:02:18;;;;;;;7.45;1.85;;;8.20;99.90;;;;;;4939665;28;20095;-76
2023/01/08 09:04:44;;;;;;;6.47;1.67;;;8.20;99.90;;;;;;4937239;28;20046;-76
2023/01/08 09:07:09;;;;;;;9.38;1.95;;;8.20;99.90;;;;;;4920589;28;20050;-76
2023/01/08 09:09:35;;;;;;;6.05;1.65;;;8.30;99.90;;;;;;4939387;28;20062;-78
2023/01/08 09:12:01;;;;;;;9.77;1.80;;;8.30;99.90;;;;;;4908328;28;20467;-76
2023/01/08 09:14:27;;;;;;;6.40;1.70;;;8.40;99.90;;;;;;4954568;28;20051;-76
2023/01/08 09:16:53;;;;;;;9.27;1.70;;;8.50;99.90;;;;;;4955050;28;20090;-79
2023/01/08 09:19:18;;;;;;;8.00;1.67;;;8.50;99.90;;;;;;4938170;29;20395;-77
2023/01/08 09:21:44;;;;;;;7.07;1.70;;;8.60;99.90;;;;;;4935393;28;20494;-76
2023/01/08 09:24:10;;;;;;;6.88;1.80;;;8.60;99.90;;;;;;4921378;29;20091;-77
2023/01/08 09:26:36;;;;;;;6.72;1.60;;;8.70;99.90;;;;;;4906116;28;20053;-77
2023/01/08 09:29:02;;;;;;;5.38;1.60;;;8.70;99.90;;;;;;4953127;28;20039;-77
2023/01/08 09:31:28;;;;;;;6.15;1.90;;;8.80;99.90;;;;;;4936596;28;20047;-78
2023/01/08 09:33:54;;;;;;;5.80;1.80;;;8.80;99.90;;;;;;4936710;28;20385;-78
2023/01/08 09:36:19;;;;;;;6.45;1.88;;;8.90;99.90;;;;;;4939069;28;20078;-78
2023/01/08 09:38:45;;;;;;;8.35;1.83;;;8.90;99.90;;;;;;4952516;28;20598;-77
2023/01/08 09:41:16;;;;;;;9.02;1.65;;;8.90;99.90;;;;;;4938394;28;20444;-79
2023/01/08 09:43:45;;;;;;;7.50;1.85;;;8.90;99.90;;;;;;4916742;28;20395;-78
2023/01/08 09:46:12;;;;;;;5.57;1.50;;;9.00;99.90;;;;;;4935933;28;20491;-77
2023/01/08 09:48:40;;;;;;;6.75;1.83;;;9.00;99.90;;;;;;4919756;28;20051;-77
2023/01/08 09:51:12;;;;;;;7.68;1.92;;;9.00;99.90;;;;;;4950299;28;20051;-79
2023/01/08 09:53:38;;;;;;;7.47;1.90;;;9.00;99.90;;;;;;4935674;28;20051;-77
2023/01/08 09:56:11;;;;;;;8.38;1.73;;;9.10;99.90;;;;;;4919136;28;20059;-77
2023/01/08 09:58:44;;;;;;;8.77;2.00;;;9.00;99.90;;;;;;4933953;29;20148;-78
2023/01/08 10:01:16;;;;;;;7.53;1.80;;;9.10;99.90;;;;;;4930989;28;20053;-78
2023/01/08 10:04:02;;;;;;;8.27;1.85;;;9.10;99.90;;;;;;4924698;29;20044;-78
2023/01/08 10:06:28;;;;;;;8.20;2.00;;;9.10;99.90;;;;;;4918837;28;20043;-78
2023/01/08 10:08:53;;;;;;;7.32;1.70;;;9.20;99.90;;;;;;4935272;29;20080;-77
2023/01/08 10:11:21;;;;;;;8.65;2.15;;;9.30;99.90;;;;;;4935320;29;20083;-77
2023/01/08 10:13:53;;;;;;;8.18;2.08;;;9.30;99.90;;;;;;4936742;29;20133;-78
2023/01/08 10:16:32;;;;;;;9.02;1.92;;;9.30;99.90;;;;;;4948802;28;20048;-78
2023/01/08 10:18:58;;;;;;;7.15;2.00;;;9.30;99.90;;;;;;4935715;29;20050;-78
2023/01/08 10:21:36;;;;;;;9.55;2.03;;;9.30;99.90;;;;;;4921379;28;20062;-78
2023/01/08 10:24:02;;;;;;;8.77;1.88;;;9.40;99.90;;;;;;4938151;29;20499;-77
2023/01/08 10:26:35;;;;;;;8.13;1.80;;;9.40;99.90;;;;;;4941163;28;20130;-76
2023/01/08 10:29:19;;;;;;;7.57;2.00;;;9.40;99.90;;;;;;4940980;29;20054;-78
2023/01/08 10:31:57;;;;;;;11.85;2.30;;;9.40;99.90;;;;;;4941506;29;20151;-76
2023/01/08 10:34:45;;;;;;;9.23;1.92;;;9.40;99.90;;;;;;4925595;29;20118;-78
2023/01/08 10:37:21;;;;;;;12.50;2.28;;;9.40;99.90;;;;;;4940343;29;20059;-77
2023/01/08 10:39:48;;;;;;;10.50;2.03;;;9.40;99.90;;;;;;4941256;29;20071;-79
2023/01/08 10:42:17;;;;;;;11.23;2.22;;;9.50;99.90;;;;;;4940486;29;20703;-77
2023/01/08 10:44:54;;;;;;;10.43;2.00;;;9.50;99.90;;;;;;4936626;29;20130;-77
2023/01/08 10:47:20;;;;;;;11.60;2.15;;;9.50;99.90;;;;;;4944397;29;20058;-78
2023/01/08 10:49:46;;;;;;;11.63;2.20;;;9.50;99.90;;;;;;4922195;29;20054;-78
2023/01/08 10:52:22;;;;;;;9.93;2.13;;;9.50;99.90;;;;;;4937330;28;20051;-77
2023/01/08 10:54:47;;;;;;;8.32;1.80;;;9.50;99.90;;;;;;4938379;29;20396;-76
2023/01/08 10:57:20;;;;;;;13.60;2.25;;;9.60;99.90;;;;;;4938974;28;20050;-79
2023/01/08 10:59:46;;;;;;;13.52;2.10;;;9.60;99.90;;;;;;4920322;29;20071;-78
2023/01/08 11:02:34;;;;;;;12.90;2.55;;;9.60;99.90;;;;;;4935839;28;20417;-77
2023/01/08 11:05:01;;;;;;;11.30;1.98;;;9.50;99.90;;;;;;4931143;29;20134;-77
2023/01/08 11:07:27;;;;;;;10.80;2.03;;;9.50;99.90;;;;;;4956370;28;20162;-78
2023/01/08 11:09:54;;;;;;;8.20;1.67;;;9.50;99.90;;;;;;4925011;29;20047;-79
2023/01/08 11:12:56;;;;;;;10.43;2.25;;;9.50;99.90;;;;;;4940210;29;20043;-77
2023/01/08 11:15:21;;;;;;;11.30;2.22;;;9.50;99.90;;;;;;4931078;29;20102;-78
2023/01/08 11:17:47;;;;;;;11.30;2.20;;;9.50;99.90;;;;;;4940162;28;20089;-77
2023/01/08 11:20:29;;;;;;;10.18;2.08;;;9.50;99.90;;;;;;4928595;29;20499;-78
2023/01/08 11:23:14;;;;;;;;;;;9.50;99.90;;;;;;4938928;28;20051;-78
2023/01/08 11:25:44;;;;;;;9.95;2.13;;;9.50;99.90;;;;;;4928950;28;19933;-78
2023/01/08 11:28:20;;;;;;;13.43;2.83;;;9.50;99.90;;;;;;4943556;28;20101;-77
2023/01/08 11:30:57;;;;;;;13.55;2.33;;;9.50;99.90;;;;;;4944959;28;20403;-77
2023/01/08 11:33:29;;;;;;;12.15;2.20;;;9.50;99.90;;;;;;4945028;28;20122;-79
2023/01/08 11:36:07;;;;;;;11.52;2.00;;;9.50;99.90;;;;;;4942411;28;20047;-78
2023/01/08 11:38:32;;;;;;;12.50;2.40;;;9.50;99.90;;;;;;4944817;29;20097;-78
2023/01/08 11:41:32;;;;;;;9.30;2.00;;;9.50;99.90;;;;;;4931178;29;20082;-79
2023/01/08 11:44:19;;;;;;;12.18;2.30;;;9.60;99.90;;;;;;4939331;29;20061;-78
2023/01/08 11:47:00;;;;;;;11.10;2.20;;;9.50;99.90;;;;;;4947492;28;20115;-77
2023/01/08 11:49:38;;;;;;;12.93;2.40;;;9.50;99.90;;;;;;4947491;28;20059;-79
2023/01/08 11:52:46;;;;;;;14.10;2.38;;;9.40;99.90;;;;;;4940149;28;20107;-79
2023/01/08 11:55:29;;;;;;;13.27;2.35;;;9.30;99.90;;;;;;4859614;29;20128;-80
2023/01/08 11:58:50;;;;;;;8.68;1.90;;;9.30;99.90;;;;;;4938680;28;20063;-79
2023/01/08 12:01:33;;;;;;;11.80;2.25;;;9.30;99.90;;;;;;4847301;29;20064;-79
2023/01/08 12:04:14;;;;;;;11.68;2.28;;;9.30;99.90;;;;;;4957647;28;20059;-79
2023/01/08 12:06:42;;;;;;;10.50;2.25;;;9.40;99.90;;;;;;4940879;28;20042;-78
2023/01/08 12:09:30;;;;;;;10.73;2.30;;;9.40;99.90;;;;;;4944585;28;20042;-80
2023/01/08 12:11:56;;;;;;;12.85;2.40;;;9.40;99.90;;;;;;4942065;28;20055;-77
2023/01/08 12:14:34;;;;;;;12.27;2.35;;;9.50;99.90;;;;;;4940880;28;20071;-79
2023/01/08 12:17:07;;;;;;;10.68;2.30;;;9.50;99.90;;;;;;4944922;28;20050;-80
2023/01/08 12:19:47;;;;;;;10.05;2.45;;;9.50;99.90;;;;;;4943044;28;20055;-78
2023/01/08 12:23:07;;;;;;;12.00;2.50;;;9.60;99.90;;;;;;4928193;28;20139;-78
2023/01/08 12:25:46;;;;;;;11.18;2.17;;;9.60;99.90;;;;;;4868397;29;20138;-78
2023/01/08 12:28:32;;;;;;;10.55;2.25;;;9.60;99.90;;;;;;4932964;28;20060;-79
2023/01/08 12:31:12;;;;;;;10.27;2.33;;;9.60;99.90;;;;;;4941164;28;20059;-77
2023/01/08 12:33:53;;;;;;;11.48;2.30;;;9.60;99.90;;;;;;4938784;28;20109;-79
2023/01/08 12:36:41;;;;;;;11.27;2.30;;;9.60;99.90;;;;;;4938213;28;20055;-79
2023/01/08 12:39:44;;;;;;;10.63;2.28;;;9.60;99.90;;;;;;4934853;28;20046;-78
2023/01/08 12:42:16;;;;;;;10.50;1.98;;;9.60;99.90;;;;;;4876604;28;20502;-79
2023/01/08 12:44:44;;;;;;;10.98;2.30;;;9.60;99.90;;;;;;4937568;28;20047;-80
2023/01/08 12:47:16;;;;;;;9.15;1.95;;;9.60;99.90;;;;;;4939584;28;20057;-80
2023/01/08 12:49:56;;;;;;;11.95;2.40;;;9.60;99.90;;;;;;4939894;28;20055;-77
2023/01/08 12:52:47;;;;;;;14.30;2.53;;;9.60;99.90;;;;;;4939278;28;20055;-79
2023/01/08 12:55:37;;;;;;;9.93;2.20;;;9.60;99.90;;;;;;4921379;28;20051;-79
2023/01/08 12:58:20;;;;;;;14.60;2.42;;;9.60;99.90;;;;;;4937438;28;20047;-79
2023/01/08 13:01:10;;;;;;;11.75;2.50;;;9.60;99.90;;;;;;4943234;28;20190;-79
2023/01/08 13:03:37;;;;;;;10.63;2.22;;;9.60;99.90;;;;;;4939574;29;20043;-79
2023/01/08 13:06:09;;;;;;;11.85;2.10;;;9.60;99.90;;;;;;4920357;28;20390;-79
2023/01/08 13:08:36;;;;;;;;;;;9.70;99.90;;;;;;4948137;28;20050;-78
2023/01/08 13:11:03;;;;;;;11.02;2.40;;;9.60;99.90;;;;;;4954817;28;20016;-81